Time;durP1;ratioP1;P1;durP2;ratioP2;P2;SDS_P1;SDS_P2;PMS_P1;PMS_P2;Temp;Humidity;BMP_temperature;BMP_pressure;BME280_temperature;BME280_humidity;BME280_pressure;Samples;Min_cycle;Max_cycle;Signal;HPM_P1;HPM_P2
2022/03/10 00:03:32;;;;;;;60.78;31.27;;;;;;;0.94;91.13;101885.30;3453959;83;98645;-87
2022/03/10 00:08:33;;;;;;;53.27;28.13;;;;;;;0.88;91.40;101895.91;3461078;82;99078;-88
2022/03/10 00:13:34;;;;;;;58.60;31.93;;;;;;;0.82;91.21;101904.36;3461962;83;98910;-88
2022/03/10 00:18:36;;;;;;;45.40;21.60;;;;;;;0.68;92.02;101894.64;3500857;82;99351;-88
2022/03/10 00:23:37;;;;;;;36.70;16.47;;;;;;;0.68;92.02;101894.64;3462516;82;98816;-88
2022/03/10 00:28:38;;;;;;;38.20;16.70;;;;;;;0.66;92.56;101902.78;3479424;82;99148;-88
2022/03/10 00:33:39;;;;;;;33.57;15.50;;;;;;;0.70;93.30;101901.94;3457231;82;98804;-87
2022/03/10 00:38:40;;;;;;;32.17;12.77;;;;;;;0.83;95.01;101904.61;3458036;82;98692;-88
2022/03/10 00:43:41;;;;;;;30.60;14.23;;;;;;;0.82;94.20;101917.91;3442301;82;98881;-87
2022/03/10 00:48:43;;;;;;;33.38;14.10;;;;;;;0.85;95.10;101921.40;3473538;82;99192;-88
2022/03/10 00:53:44;;;;;;;29.60;13.63;;;;;;;0.86;95.43;101927.08;3463328;82;99312;-85
2022/03/10 00:58:45;;;;;;;27.23;12.10;;;;;;;0.92;96.17;101921.91;3476707;82;99271;-86
2022/03/10 01:03:46;;;;;;;29.57;11.87;;;;;;;1.00;96.47;101921.35;3433802;84;98468;-88
2022/03/10 01:08:47;;;;;;;32.80;14.07;;;;;;;1.07;96.93;101918.61;3475863;82;98617;-88
2022/03/10 01:13:48;;;;;;;30.67;12.83;;;;;;;1.10;97.28;101930.80;3481476;81;98891;-88
2022/03/10 01:18:49;;;;;;;33.27;14.63;;;;;;;1.15;97.72;101936.20;3465777;82;98934;-89
2022/03/10 01:23:50;;;;;;;40.03;15.70;;;;;;;1.15;97.67;101937.00;3477080;82;98868;-89
2022/03/10 01:28:51;;;;;;;39.73;18.17;;;;;;;1.15;97.58;101941.63;3492615;81;99013;-88
2022/03/10 01:33:52;;;;;;;40.47;16.63;;;;;;;1.14;97.55;101944.88;3486069;82;98522;-89
2022/03/10 01:38:53;;;;;;;34.00;14.87;;;;;;;1.13;97.67;101942.43;3495133;82;99119;-88
2022/03/10 01:44:01;;;;;;;32.30;16.03;;;;;;;1.10;97.57;101948.42;3489427;82;98876;-88
2022/03/10 01:49:04;;;;;;;32.00;15.10;;;;;;;1.11;98.72;101950.84;3493259;82;98887;-88
2022/03/10 01:54:07;;;;;;;43.67;22.30;;;;;;;1.18;99.44;101959.50;3476937;82;98964;-89
2022/03/10 01:59:10;;;;;;;68.20;26.67;;;;;;;1.29;100.00;101954.84;3487370;82;98826;-87
2022/03/10 02:04:11;;;;;;;88.27;37.55;;;;;;;1.36;100.00;101957.52;3455970;83;98733;-89
2022/03/10 02:19:55;;;;;;;51.87;24.20;;;;;;;1.57;100.00;101967.70;3455077;83;99121;-86
2022/03/10 02:24:55;;;;;;;39.93;20.67;;;;;;;1.56;100.00;101972.34;3474461;83;99145;-88
2022/03/10 02:30:02;;;;;;;33.05;17.23;;;;;;;1.50;99.76;101991.09;3454979;83;104497;-88
2022/03/10 02:35:04;;;;;;;32.93;16.40;;;;;;;1.51;100.00;102000.03;3465218;83;99048;-88
2022/03/10 02:40:08;;;;;;;29.10;14.97;;;;;;;1.53;100.00;102001.38;3464914;83;99408;-87
2022/03/10 02:45:10;;;;;;;27.87;15.33;;;;;;;1.58;100.00;101997.84;3463175;83;98871;-87
2022/03/10 02:50:11;;;;;;;32.05;15.80;;;;;;;1.66;100.00;102006.74;3452683;83;98996;-88
2022/03/10 02:55:12;;;;;;;31.45;16.27;;;;;;;1.75;100.00;102015.94;3471890;83;99419;-87
2022/03/10 03:00:14;;;;;;;32.50;15.73;;;;;;;1.81;100.00;102013.45;3454399;83;99020;-88
2022/03/10 03:05:16;;;;;;;32.70;15.80;;;;;;;1.83;100.00;102024.83;3470243;83;99504;-87
2022/03/10 03:10:17;;;;;;;29.67;14.65;;;;;;;1.82;100.00;102034.07;3477184;83;98877;-87
2022/03/10 03:15:19;;;;;;;27.40;15.47;;;;;;;1.83;99.83;102031.62;3466425;83;98794;-87
2022/03/10 03:20:21;;;;;;;27.82;14.60;;;;;;;1.82;99.79;102037.61;3493316;82;98694;-89
2022/03/10 03:25:22;;;;;;;27.60;13.47;;;;;;;1.83;99.74;102047.37;3503036;81;98829;-87
2022/03/10 03:30:23;;;;;;;26.35;13.28;;;;;;;1.84;99.51;102053.59;3444097;83;99029;-88
2022/03/10 03:35:25;;;;;;;27.73;13.70;;;;;;;1.82;99.17;102049.00;3444151;83;98781;-88
2022/03/10 03:40:26;;;;;;;31.87;13.55;;;;;;;1.78;98.36;102058.25;3430517;83;98694;-86
2022/03/10 03:45:28;;;;;;;28.37;15.23;;;;;;;1.72;98.03;102059.91;3433185;83;98811;-87
2022/03/10 03:50:28;;;;;;;25.80;14.50;;;;;;;1.66;97.62;102064.56;3451522;83;98647;-89
2022/03/10 03:55:30;;;;;;;27.67;14.87;;;;;;;1.58;97.33;102065.69;3438191;83;99206;-88
2022/03/10 04:00:31;;;;;;;27.30;13.93;;;;;;;1.53;97.37;102073.84;3445162;83;98824;-88
2022/03/10 04:05:31;;;;;;;27.77;14.07;;;;;;;1.47;97.14;102083.88;3457895;83;98871;-88
2022/03/10 04:10:34;;;;;;;29.60;14.43;;;;;;;1.44;97.00;102089.05;3491536;82;99019;-87
2022/03/10 04:15:35;;;;;;;29.43;15.27;;;;;;;1.42;96.92;102096.10;3433601;83;98587;-86
2022/03/10 04:20:36;;;;;;;31.23;15.30;;;;;;;1.38;96.75;102109.15;3488886;82;98769;-87
2022/03/10 04:25:37;;;;;;;27.63;13.90;;;;;;;1.33;96.47;102116.77;3474914;82;98814;-87
2022/03/10 04:30:38;;;;;;;28.33;15.80;;;;;;;1.27;96.36;102125.17;3480562;82;99179;-88
2022/03/10 04:35:39;;;;;;;29.07;15.93;;;;;;;1.18;96.26;102124.09;3477970;82;99165;-87
2022/03/10 04:40:40;;;;;;;31.00;16.37;;;;;;;1.10;96.26;102132.80;3469133;82;98860;-88
2022/03/10 04:45:41;;;;;;;30.90;16.30;;;;;;;1.01;96.30;102138.48;3480404;82;34881;-88
2022/03/10 04:50:42;;;;;;;27.67;16.13;;;;;;;0.93;96.23;102143.11;3460935;82;98621;-88
2022/03/10 04:55:43;;;;;;;32.53;17.63;;;;;;;0.84;96.27;102150.15;3475072;82;98997;-88
2022/03/10 05:00:44;;;;;;;33.07;17.37;;;;;;;0.74;96.23;102153.67;3471945;82;99047;-88
2022/03/10 05:05:47;;;;;;;34.75;17.27;;;;;;;0.67;96.23;102166.66;3472428;82;99361;-88
2022/03/10 05:10:48;;;;;;;31.30;17.00;;;;;;;0.63;96.00;102176.42;3476235;82;99129;-88
2022/03/10 05:15:49;;;;;;;32.47;17.63;;;;;;;0.55;96.05;102185.06;3481629;82;32448;-87
2022/03/10 05:20:50;;;;;;;34.73;17.60;;;;;;;0.48;96.19;102195.34;3489702;82;98617;-87
2022/03/10 05:25:51;;;;;;;25.73;12.37;;;;;;;0.42;96.57;102203.72;3497555;82;98879;-88
2022/03/10 05:30:52;;;;;;;31.47;16.23;;;;;;;0.39;96.41;102210.48;3485773;82;99031;-88
2022/03/10 05:35:53;;;;;;;29.63;15.23;;;;;;;0.35;96.20;102218.89;3499397;82;98902;-86
2022/03/10 05:40:54;;;;;;;31.85;15.53;;;;;;;0.29;95.98;102215.86;3487023;82;98938;-88
2022/03/10 05:45:55;;;;;;;30.03;14.17;;;;;;;0.20;95.88;102211.23;3495926;82;32467;-88
2022/03/10 05:50:56;;;;;;;26.05;12.58;;;;;;;0.24;95.66;102241.56;3492635;82;99013;-88
2022/03/10 05:55:57;;;;;;;26.87;13.53;;;;;;;0.19;95.28;102243.45;3484972;82;99116;-90
2022/03/10 06:00:58;;;;;;;23.73;10.93;;;;;;;0.15;94.98;102251.28;3482647;82;99324;-89
2022/03/10 06:05:59;;;;;;;33.13;16.37;;;;;;;0.13;94.61;102252.06;3456493;83;98852;-88
2022/03/10 06:11:04;;;;;;;26.63;13.23;;;;;;;0.09;94.42;102256.41;3448603;82;98930;-88
2022/03/10 06:16:04;;;;;;;28.13;14.07;;;;;;;0.09;94.23;102260.98;3481399;82;26832;-87
2022/03/10 06:21:04;;;;;;;23.97;12.20;;;;;;;0.11;93.99;102273.75;3493627;82;99205;-88
2022/03/10 06:26:05;;;;;;;22.23;9.70;;;;;;;0.13;93.74;102282.41;3490433;81;98844;-87
2022/03/10 06:31:08;;;;;;;24.13;11.30;;;;;;;0.18;93.21;102297.33;3496083;82;99020;-90
2022/03/10 06:36:11;;;;;;;27.07;12.00;;;;;;;0.18;92.93;102303.53;3498558;82;98842;-88
2022/03/10 06:41:12;;;;;;;23.18;10.05;;;;;;;0.23;92.56;102308.98;3535859;80;98866;-89
2022/03/10 06:46:13;;;;;;;23.27;9.80;;;;;;;0.21;92.04;102303.02;3567674;80;25860;-91
2022/03/10 06:51:14;;;;;;;18.48;9.03;;;;;;;0.35;91.70;102324.51;3575139;80;98589;-91
2022/03/10 06:56:17;;;;;;;24.27;10.53;;;;;;;0.39;90.72;102327.50;3576539;80;98529;-89
2022/03/10 07:01:19;;;;;;;18.20;9.00;;;;;;;0.44;90.30;102336.45;3565612;79;98888;-90
2022/03/10 07:06:20;;;;;;;16.20;7.67;;;;;;;0.50;89.77;102344.08;3579223;79;98743;-89
2022/03/10 07:11:21;;;;;;;16.73;8.07;;;;;;;0.55;89.09;102349.52;3579489;80;98613;-87
2022/03/10 07:16:22;;;;;;;19.67;7.07;;;;;;;0.60;89.11;102353.05;3580926;80;26150;-88
2022/03/10 07:21:23;;;;;;;22.00;8.27;;;;;;;0.68;88.15;102357.16;3578577;80;98867;-87
2022/03/10 07:26:24;;;;;;;17.27;7.27;;;;;;;0.73;87.84;102363.95;3591312;80;98924;-90
2022/03/10 07:31:26;;;;;;;16.60;7.27;;;;;;;0.83;86.70;102376.20;3570695;80;99022;-89
2022/03/10 07:36:28;;;;;;;16.17;6.47;;;;;;;0.89;86.42;102363.73;3571378;80;98746;-90
2022/03/10 07:41:29;;;;;;;13.00;5.30;;;;;;;0.93;86.29;102364.04;3579766;78;98643;-88
2022/03/10 07:46:30;;;;;;;14.53;6.67;;;;;;;1.02;84.96;102363.25;3582060;80;26076;-90
2022/03/10 07:51:32;;;;;;;17.07;6.13;;;;;;;1.12;84.76;102358.39;3584455;80;98501;-88
2022/03/10 07:56:33;;;;;;;13.07;6.47;;;;;;;1.26;83.14;102375.79;3572109;80;98970;-89
2022/03/10 08:01:35;;;;;;;17.60;7.23;;;;;;;1.30;80.63;102387.19;3594074;80;99132;-90
2022/03/10 08:06:36;;;;;;;14.73;6.43;;;;;;;1.30;78.89;102364.66;3586187;80;99105;-89
2022/03/10 08:11:43;;;;;;;21.87;7.00;;;;;;;1.30;78.89;102364.66;3591716;79;98667;-90
2022/03/10 08:16:42;;;;;;;17.50;7.60;;;;;;;1.49;77.64;102388.29;3595908;80;98618;-86
2022/03/10 08:21:43;;;;;;;15.87;6.50;;;;;;;1.58;77.40;102385.89;3586397;80;98365;-89
2022/03/10 08:26:44;;;;;;;15.10;6.73;;;;;;;1.70;76.07;102399.44;3581505;80;98408;-88
2022/03/10 08:31:45;;;;;;;19.53;6.87;;;;;;;1.83;74.69;102404.36;3582309;80;98704;-90
2022/03/10 08:36:46;;;;;;;20.43;7.10;;;;;;;1.99;72.13;102401.92;3591075;80;99139;-86
2022/03/10 08:41:49;;;;;;;16.63;6.80;;;;;;;2.14;68.46;102405.16;3591697;80;99210;-86
2022/03/10 08:46:51;;;;;;;13.20;5.40;;;;;;;2.28;69.18;102404.33;3597576;80;97870;-87
2022/03/10 08:51:52;;;;;;;12.93;5.53;;;;;;;2.46;65.26;102409.73;3585373;80;98333;-90
2022/03/10 08:56:53;;;;;;;15.47;5.60;;;;;;;2.69;68.15;102414.57;3597545;79;97741;-90
2022/03/10 09:01:54;;;;;;;16.80;6.70;;;;;;;3.05;67.67;102415.52;3569106;80;98663;-90
2022/03/10 09:06:55;;;;;;;13.30;6.00;;;;;;;3.35;66.47;102415.91;3606127;80;97863;-89
2022/03/10 09:11:57;;;;;;;12.87;6.00;;;;;;;3.77;66.81;102421.08;3575884;80;98550;-90
2022/03/10 09:17:04;;;;;;;9.53;4.60;;;;;;;4.40;68.00;102410.46;3564810;80;98763;-87
2022/03/10 09:22:05;;;;;;;11.70;5.05;;;;;;;5.19;65.78;102414.71;3546359;81;98219;-89
2022/03/10 09:27:07;;;;;;;13.03;5.60;;;;;;;5.71;57.29;102413.70;3551072;80;98519;-89
2022/03/10 09:32:08;;;;;;;11.27;4.67;;;;;;;5.42;59.28;102415.78;3413610;84;98501;-88
2022/03/10 09:37:09;;;;;;;11.67;5.50;;;;;;;5.96;56.69;102408.70;3411302;84;98893;-88
2022/03/10 09:42:13;;;;;;;12.15;5.65;;;;;;;6.36;56.85;102409.37;3439415;84;99143;-92
2022/03/10 09:47:16;;;;;;;11.28;4.75;;;;;;;6.83;56.43;102410.37;3553949;81;98799;-90
2022/03/10 09:52:20;;;;;;;11.23;4.63;;;;;;;7.21;53.48;102413.72;3546180;81;98319;-89
2022/03/10 09:57:22;;;;;;;9.58;4.22;;;;;;;7.66;51.46;102396.25;3528709;82;99028;-89
2022/03/10 10:02:27;;;;;;;13.45;5.80;;;;;;;7.61;46.37;102408.15;3518325;81;98428;-90
2022/03/10 10:07:29;;;;;;;18.00;6.20;;;;;;;7.75;50.32;102396.56;3549012;81;98998;-90
2022/03/10 10:12:32;;;;;;;16.30;5.92;;;;;;;8.18;48.35;102405.91;3549474;80;98653;-91
2022/03/10 10:17:34;;;;;;;10.95;5.28;;;;;;;8.98;51.13;102402.94;3579146;80;98667;-90
2022/03/10 10:22:38;;;;;;;10.07;5.20;;;;;;;9.15;45.45;102412.04;3562510;80;98480;-88
2022/03/10 10:27:42;;;;;;;10.65;5.37;;;;;;;8.87;42.58;102424.40;3582649;80;99031;-90
2022/03/10 10:32:53;;;;;;;13.17;5.70;;;;;;;9.27;44.18;102421.05;3579740;80;98529;-87
2022/03/10 10:37:54;;;;;;;37.53;24.73;;;;;;;9.81;40.07;102414.39;3576828;79;98997;-89
2022/03/10 10:42:56;;;;;;;15.32;7.30;;;;;;;9.21;39.30;102413.51;3570002;79;98924;-91
2022/03/10 10:48:08;;;;;;;13.65;7.20;;;;;;;9.57;43.26;102425.06;3498152;81;98645;-87
2022/03/10 10:53:32;;;;;;;20.62;9.30;;;;;;;9.54;43.30;102409.78;3471203;82;98628;-88
2022/03/10 10:58:33;;;;;;;16.70;6.62;;;;;;;9.57;42.78;102407.74;3456953;82;32382;-88
2022/03/10 11:03:37;;;;;;;18.33;7.70;;;;;;;9.81;40.14;102411.64;3483925;82;98785;-92
2022/03/10 11:08:38;;;;;;;17.25;7.53;;;;;;;9.26;41.51;102409.83;3478178;82;98591;-90
2022/03/10 11:13:39;;;;;;;13.63;6.83;;;;;;;8.91;41.13;102410.84;3439762;82;98777;-89
2022/03/10 11:18:41;;;;;;;24.57;8.67;;;;;;;8.59;41.00;102407.88;3564705;79;98602;-90
2022/03/10 11:23:56;;;;;;;17.80;8.15;;;;;;;8.46;39.17;102423.86;3578242;80;98819;-88
2022/03/10 11:29:00;;;;;;;18.40;8.75;;;;;;;8.53;40.12;102409.70;3579155;80;98750;-90
2022/03/10 11:34:01;;;;;;;14.90;7.15;;;;;;;8.74;41.09;102413.52;3575624;80;98367;-89
2022/03/10 11:39:10;;;;;;;14.20;6.83;;;;;;;8.87;40.66;102409.30;3585015;80;98531;-91
2022/03/10 11:44:12;;;;;;;14.30;6.97;;;;;;;9.01;41.97;102411.38;3573092;80;98576;-89
2022/03/10 11:49:15;;;;;;;14.83;7.17;;;;;;;8.59;39.68;102416.13;3582504;80;99101;-90
2022/03/10 11:54:29;;;;;;;12.98;6.12;;;;;;;8.24;39.11;102419.77;3574377;80;98997;-93
2022/03/10 11:59:35;;;;;;;14.05;6.58;;;;;;;8.35;40.35;102426.63;3591346;80;98637;-88
2022/03/10 12:04:41;;;;;;;13.80;6.08;;;;;;;8.38;40.93;102421.89;3585119;80;98542;-89
2022/03/10 12:09:42;;;;;;;15.72;7.08;;;;;;;8.35;39.40;102411.53;3557127;80;98467;-92
2022/03/10 12:14:45;;;;;;;13.50;6.47;;;;;;;8.36;40.60;102409.06;3571416;80;98599;-87
2022/03/10 12:20:13;;;;;;;13.58;6.60;;;;;;;8.32;40.49;102406.69;3577446;80;98710;-91
2022/03/10 12:25:22;;;;;;;15.20;7.53;;;;;;;8.31;41.08;102406.99;3591730;80;99102;-90
2022/03/10 12:30:28;;;;;;;13.13;6.62;;;;;;;8.34;40.67;102403.06;3551263;80;98620;-87
2022/03/10 12:35:36;;;;;;;16.10;6.47;;;;;;;8.38;40.52;102387.59;3583417;80;99142;-88
2022/03/10 12:40:39;;;;;;;19.73;7.13;;;;;;;7.97;38.06;102387.55;3553272;81;98344;-87
2022/03/10 12:45:46;;;;;;;14.38;6.42;;;;;;;7.54;37.70;102389.14;3577181;80;98406;-88
2022/03/10 12:50:47;;;;;;;13.60;6.28;;;;;;;7.11;38.90;102389.28;3577857;80;98952;-89
2022/03/10 12:55:59;;;;;;;11.40;5.53;;;;;;;7.15;37.25;102386.98;3589604;80;98626;-88
2022/03/10 13:01:10;;;;;;;12.63;5.60;;;;;;;6.83;36.66;102384.37;3576904;79;98643;-87
2022/03/10 13:06:12;;;;;;;12.57;5.57;;;;;;;6.98;39.37;102381.91;3577183;80;98501;-89
2022/03/10 13:11:22;;;;;;;16.00;6.17;;;;;;;7.02;37.24;102382.34;3579766;80;98797;-85
2022/03/10 13:16:23;;;;;;;18.12;5.55;;;;;;;6.95;38.00;102384.69;3592643;80;30963;-90
2022/03/10 13:21:24;;;;;;;12.80;6.13;;;;;;;7.07;39.44;102380.88;3470871;83;98799;-90
2022/03/10 13:26:26;;;;;;;12.77;5.47;;;;;;;6.99;39.02;102377.47;3469882;83;98598;-88
2022/03/10 13:31:29;;;;;;;15.27;6.43;;;;;;;7.01;39.45;102362.93;3609363;79;98689;-88
2022/03/10 13:36:30;;;;;;;13.75;6.12;;;;;;;7.05;40.14;102357.65;3603501;80;98644;-88
2022/03/10 13:41:32;;;;;;;12.67;5.50;;;;;;;7.05;40.15;102361.22;3604963;79;99063;-88
2022/03/10 13:46:32;;;;;;;10.17;5.40;;;;;;;6.88;39.50;102358.27;3613513;80;26709;-87
2022/03/10 13:51:36;;;;;;;14.10;6.03;;;;;;;6.82;40.34;102354.59;3599006;81;99134;-87
2022/03/10 13:56:43;;;;;;;16.42;6.70;;;;;;;6.70;39.53;102351.56;3490489;83;98504;-87
2022/03/10 14:01:45;;;;;;;12.83;5.27;;;;;;;6.57;38.43;102350.98;3483855;83;99129;-87
2022/03/10 14:06:51;;;;;;;13.30;6.45;;;;;;;6.28;40.01;102354.56;3513935;82;97794;-87
2022/03/10 14:11:53;;;;;;;15.10;7.17;;;;;;;6.27;38.86;102357.05;3463058;83;98832;-88
2022/03/10 14:16:55;;;;;;;14.80;7.00;;;;;;;6.05;38.82;102359.64;3533588;81;97891;-88
2022/03/10 14:22:00;;;;;;;15.68;7.03;;;;;;;5.91;38.22;102348.66;3524830;80;98267;-89
2022/03/10 14:27:12;;;;;;;13.70;6.50;;;;;;;5.78;40.47;102352.11;3476328;83;98253;-90
2022/03/10 14:32:15;;;;;;;12.70;5.63;;;;;;;5.77;40.09;102345.03;3474677;83;98716;-88
2022/03/10 14:37:16;;;;;;;15.28;5.95;;;;;;;5.79;40.00;102346.90;3475309;84;98700;-93
2022/03/10 14:42:18;;;;;;;16.45;6.65;;;;;;;5.70;41.24;102344.61;3446453;83;98805;-89
2022/03/10 14:47:20;;;;;;;16.30;7.90;;;;;;;5.59;40.06;102344.52;3468517;82;98641;-89
2022/03/10 14:52:24;;;;;;;14.65;6.45;;;;;;;5.43;39.96;102338.20;3463975;83;98452;-90
2022/03/10 14:57:25;;;;;;;19.55;6.58;;;;;;;5.34;41.00;102345.47;3448021;84;98518;-91
2022/03/10 15:02:26;;;;;;;15.13;6.23;;;;;;;5.29;40.36;102346.33;3463907;83;99016;-91
2022/03/10 15:07:29;;;;;;;17.70;6.30;;;;;;;5.18;39.68;102353.04;3460973;83;98723;-87
2022/03/10 15:12:34;;;;;;;13.45;6.62;;;;;;;5.02;40.54;102358.45;3440642;83;99204;-89
2022/03/10 15:17:37;;;;;;;25.17;9.45;;;;;;;4.92;40.89;102353.11;3485885;83;98973;-88
2022/03/10 15:22:54;;;;;;;28.25;8.48;;;;;;;4.83;40.42;102360.34;3486901;83;98762;-88
2022/03/10 15:27:43;;;;;;;12.73;6.43;;;;;;;4.73;40.84;102360.47;3489045;83;98888;-89
2022/03/10 15:32:45;;;;;;;14.55;6.28;;;;;;;4.59;39.14;102367.70;3461498;83;98574;-88
2022/03/10 15:37:49;;;;;;;15.70;7.10;;;;;;;4.48;40.78;102368.92;3479462;84;98677;-89
2022/03/10 15:42:51;;;;;;;20.10;7.90;;;;;;;4.40;41.61;102370.94;3495308;82;99096;-88
2022/03/10 15:47:53;;;;;;;15.33;6.67;;;;;;;4.31;41.14;102363.68;3581752;81;99020;-88
2022/03/10 15:52:55;;;;;;;16.33;7.37;;;;;;;4.22;40.76;102368.13;3579603;81;98422;-90
2022/03/10 15:57:59;;;;;;;15.13;6.27;;;;;;;4.08;41.77;102363.89;3573403;80;98377;-87
2022/03/10 16:03:00;;;;;;;15.48;6.22;;;;;;;4.02;41.43;102363.67;3585518;80;98920;-91
2022/03/10 16:08:56;;;;;;;;;;;;;;;;;;;;;
2022/03/10 16:13:41;;;;;;;22.93;9.10;;;;;;;3.81;41.91;102367.67;3511689;81;98879;-92
2022/03/10 16:18:43;;;;;;;20.50;9.40;;;;;;;3.72;41.70;102371.30;3563717;81;98649;-92
2022/03/10 16:23:44;;;;;;;22.40;9.03;;;;;;;3.59;41.56;102374.64;3557425;79;98775;-93
2022/03/10 16:28:48;;;;;;;28.27;9.67;;;;;;;3.48;41.69;102377.17;3554665;81;25797;-92
2022/03/10 16:33:53;;;;;;;21.15;8.85;;;;;;;3.39;42.20;102392.49;3541077;81;98775;-90
2022/03/10 16:38:56;;;;;;;20.77;9.43;;;;;;;3.24;42.31;102394.76;3563311;81;98896;-92
2022/03/10 16:44:25;;;;;;;19.93;8.73;;;;;;;3.13;42.37;102407.33;3544639;81;98942;-92
2022/03/10 16:49:26;;;;;;;21.33;10.08;;;;;;;2.98;42.96;102391.06;3552493;81;98710;-91
2022/03/10 16:54:29;;;;;;;24.40;9.47;;;;;;;2.86;43.39;102396.02;3531333;79;98713;-90
2022/03/10 16:59:31;;;;;;;28.25;11.50;;;;;;;2.75;43.79;102394.42;3556043;81;97864;-92
2022/03/10 17:05:10;;;;;;;22.87;11.07;;;;;;;2.61;44.38;102403.71;3555933;79;98673;-91
2022/03/10 17:10:12;;;;;;;;;;;;;;;2.49;44.33;102404.56;3532385;80;99996;-89
2022/03/10 17:15:13;;;;;;;49.07;18.57;;;;;;;2.36;44.60;102407.83;3533639;81;84605;-91
2022/03/10 17:20:16;;;;;;;40.70;14.50;;;;;;;2.25;45.40;102408.14;3514839;80;99324;-90
2022/03/10 17:26:19;;;;;;;67.47;21.23;;;;;;;2.14;45.24;102419.54;3530670;81;97996;-90
2022/03/10 17:31:22;;;;;;;50.13;17.27;;;;;;;2.04;45.97;102429.61;3511225;80;98766;-91
2022/03/10 17:36:23;;;;;;;35.50;15.38;;;;;;;1.93;46.05;102419.83;3527958;81;98763;-91
2022/03/10 17:41:29;;;;;;;31.00;12.33;;;;;;;1.79;46.18;102426.87;3512754;83;98479;-93
2022/03/10 17:46:48;;;;;;;26.12;10.72;;;;;;;1.71;46.37;102424.14;3521872;82;98695;-91
2022/03/10 17:57:53;;;;;;;23.87;9.83;;;;;;;1.49;47.60;102420.84;3529275;80;28083;-94
2022/03/10 18:02:57;;;;;;;25.63;12.07;;;;;;;1.38;47.85;102417.84;3475398;82;99300;-94
2022/03/10 18:08:08;;;;;;;30.33;13.30;;;;;;;1.19;47.84;102409.11;3508906;81;99041;-91
2022/03/10 18:13:16;;;;;;;29.15;13.03;;;;;;;1.18;47.98;102424.58;3506995;82;98892;-91
2022/03/10 18:19:18;;;;;;;33.97;12.90;;;;;;;1.10;48.45;102425.64;3542815;82;29659;-94
2022/03/10 18:30:22;;;;;;;;;;;;;;;;;;;;;
2022/03/10 18:40:19;;;;;;;32.35;13.60;;;;;;;0.72;49.74;102432.23;3531772;80;98959;-92
2022/03/10 18:45:23;;;;;;;29.77;12.40;;;;;;;0.62;49.78;102432.16;3561654;80;98911;-92
2022/03/10 18:50:24;;;;;;;32.23;13.53;;;;;;;0.52;50.31;102422.66;3581890;81;98786;-89
2022/03/10 18:55:36;;;;;;;35.23;14.70;;;;;;;0.43;50.35;102424.73;3582078;80;26548;-89
2022/03/10 19:00:45;;;;;;;39.33;15.98;;;;;;;0.35;50.57;102431.48;3554563;80;98884;-90
2022/03/10 19:05:51;;;;;;;31.10;13.85;;;;;;;0.27;51.32;102432.48;3581806;80;98600;-92
2022/03/10 19:11:02;;;;;;;30.90;13.88;;;;;;;0.20;51.89;102435.43;3556677;78;98849;-91
2022/03/10 19:16:05;;;;;;;29.60;12.27;;;;;;;0.13;52.50;102436.17;3561652;81;99176;-93
2022/03/10 19:21:13;;;;;;;30.97;12.80;;;;;;;0.04;52.55;102435.03;3536480;81;99585;-91
2022/03/10 19:26:15;;;;;;;27.30;12.47;;;;;;;-0.03;52.47;102440.38;3543375;80;28353;-90
2022/03/10 19:31:19;;;;;;;33.20;13.43;;;;;;;-0.11;52.95;102443.02;3552898;81;98997;-90
2022/03/10 19:36:21;;;;;;;34.50;13.80;;;;;;;-0.14;53.37;102450.84;3510682;82;98967;-89
2022/03/10 19:41:23;;;;;;;35.45;14.15;;;;;;;-0.18;53.73;102455.67;3465204;82;99034;-91
2022/03/10 19:46:26;;;;;;;33.50;13.70;;;;;;;-0.23;54.05;102453.72;3449001;83;99007;-88
2022/03/10 19:51:27;;;;;;;34.90;13.73;;;;;;;-0.28;54.32;102454.22;3443628;84;99553;-88
2022/03/10 19:56:28;;;;;;;33.90;14.40;;;;;;;-0.32;54.74;102466.09;3578129;82;26541;-92
2022/03/10 20:01:31;;;;;;;33.77;14.03;;;;;;;-0.37;55.29;102463.86;3584162;82;98827;-89
2022/03/10 20:06:33;;;;;;;30.43;13.13;;;;;;;-0.41;55.53;102462.20;3584694;82;98949;-92
2022/03/10 20:11:36;;;;;;;29.67;14.03;;;;;;;-0.44;55.73;102452.44;3557601;81;99220;-91
2022/03/10 20:16:47;;;;;;;37.90;13.83;;;;;;;-0.47;56.33;102456.98;3603948;80;99039;-90
2022/03/10 20:22:10;;;;;;;;;;;;;;;;;;;;;
2022/03/10 20:27:17;;;;;;;34.87;14.67;;;;;;;-0.56;56.71;102449.87;3537731;81;98976;-87
2022/03/10 20:32:18;;;;;;;32.60;13.78;;;;;;;-0.59;56.63;102453.09;3503143;82;98705;-91
2022/03/10 20:37:21;;;;;;;32.03;13.33;;;;;;;-0.62;56.95;102455.50;3553665;80;98848;-88
2022/03/10 20:42:25;;;;;;;31.27;13.40;;;;;;;-0.67;56.96;102456.79;3508659;82;98890;-92
2022/03/10 20:47:27;;;;;;;33.10;14.03;;;;;;;-0.80;57.17;102439.59;3539556;80;27482;-91
2022/03/10 20:52:30;;;;;;;30.80;12.20;;;;;;;-0.76;57.31;102449.66;3500442;81;99099;-91
2022/03/10 20:57:48;;;;;;;28.62;11.38;;;;;;;-0.80;57.80;102453.10;3553033;80;99177;-91
2022/03/10 21:02:49;;;;;;;28.77;12.18;;;;;;;-0.83;57.60;102453.07;3534214;80;99515;-88
2022/03/10 21:07:55;;;;;;;30.80;13.03;;;;;;;-0.88;57.64;102450.86;3644357;79;25921;-88
2022/03/10 21:12:56;;;;;;;31.20;13.00;;;;;;;-0.90;57.13;102453.80;3504370;80;99128;-92
2022/03/10 21:17:57;;;;;;;29.70;12.17;;;;;;;-0.89;57.30;102453.28;3550404;80;99008;-91
2022/03/10 21:23:04;;;;;;;29.05;11.48;;;;;;;-0.92;56.96;102452.42;3557012;81;98973;-93
2022/03/10 21:28:06;;;;;;;29.65;11.33;;;;;;;-0.95;56.91;102453.74;3585477;81;98983;-89
2022/03/10 21:33:09;;;;;;;32.00;12.47;;;;;;;-0.99;56.56;102451.80;3542558;80;99122;-89
2022/03/10 21:38:11;;;;;;;24.67;9.90;;;;;;;-1.00;56.43;102450.17;3563111;82;27557;-93
2022/03/10 21:43:12;;;;;;;24.77;11.03;;;;;;;-1.04;56.22;102447.69;3581984;81;98883;-91
2022/03/10 21:48:14;;;;;;;24.37;9.73;;;;;;;-1.07;56.29;102446.30;3585464;81;99077;-91
2022/03/10 21:58:23;;;;;;;26.87;10.50;;;;;;;-1.14;56.15;102450.25;3581713;80;99299;-91
2022/03/10 22:03:24;;;;;;;33.63;12.35;;;;;;;-1.17;56.20;102452.92;3554768;79;99166;-92
2022/03/10 22:08:25;;;;;;;29.50;11.40;;;;;;;-1.20;56.00;102452.61;3592604;82;28272;-90
2022/03/10 22:13:26;;;;;;;27.67;10.63;;;;;;;-1.22;55.97;102454.75;3589159;81;99251;-93
2022/03/10 22:18:27;;;;;;;22.63;11.47;;;;;;;-1.24;55.99;102454.16;3576353;82;99102;-89
2022/03/10 22:23:34;;;;;;;21.23;9.43;;;;;;;-1.28;55.85;102454.38;3564486;80;99374;-92
2022/03/10 22:28:35;;;;;;;25.77;11.27;;;;;;;-1.34;56.21;102452.67;3578585;79;98942;-90
2022/03/10 22:33:35;;;;;;;29.27;11.53;;;;;;;-1.37;56.40;102445.08;3460917;82;99488;-91
2022/03/10 22:38:36;;;;;;;44.90;13.27;;;;;;;-1.41;56.09;102451.52;3458506;83;27021;-91
2022/03/10 22:43:38;;;;;;;37.17;11.47;;;;;;;-1.48;56.23;102444.10;3499163;82;99081;-91
2022/03/10 22:48:38;;;;;;;31.03;11.47;;;;;;;-1.46;56.22;102450.09;3462944;83;98268;-91
2022/03/10 22:58:58;;;;;;;34.77;10.83;;;;;;;-1.51;56.35;102466.73;3461931;83;99135;-89
2022/03/10 23:03:59;;;;;;;22.80;8.37;;;;;;;-1.55;56.55;102465.59;3465361;82;99202;-90
2022/03/10 23:09:00;;;;;;;25.43;9.57;;;;;;;-1.56;56.45;102468.01;3478573;82;99374;-89
2022/03/10 23:14:01;;;;;;;27.20;9.20;;;;;;;-1.60;56.68;102469.04;3447927;84;98957;-88
2022/03/10 23:19:02;;;;;;;22.30;10.20;;;;;;;-1.60;56.86;102469.59;3463289;84;98937;-90
2022/03/10 23:24:03;;;;;;;29.00;11.60;;;;;;;-1.62;56.81;102471.70;3457224;84;99464;-90
2022/03/10 23:29:04;;;;;;;26.43;10.40;;;;;;;-1.64;56.83;102467.09;3457778;83;99150;-93
2022/03/10 23:34:05;;;;;;;24.40;10.00;;;;;;;-1.67;57.04;102458.13;3451775;82;99233;-94
2022/03/10 23:39:06;;;;;;;26.20;11.10;;;;;;;-1.71;57.02;102471.30;3464783;83;99200;-91
2022/03/10 23:44:07;;;;;;;23.97;9.80;;;;;;;-1.73;56.82;102472.61;3463990;83;98665;-92
2022/03/10 23:49:08;;;;;;;25.90;9.67;;;;;;;-1.76;57.36;102465.81;3476035;84;98924;-89
2022/03/10 23:54:10;;;;;;;25.77;12.07;;;;;;;-1.80;57.32;102466.02;3469694;83;99214;-90
2022/03/10 23:59:13;;;;;;;27.80;10.63;;;;;;;-1.83;57.22;102465.17;3470834;84;99507;-92
